sensor_id;sensor_type;location;lat;lon;timestamp;P1;durP1;ratioP1;P2;durP2;ratioP2
34019;SDS011;20895;51.034;3.742;2024-02-04T00:02:10;18.02;;;7.65;;
34019;SDS011;20895;51.034;3.742;2024-02-04T00:04:39;14.88;;;7.22;;
34019;SDS011;20895;51.034;3.742;2024-02-04T00:07:04;15.27;;;6.47;;
34019;SDS011;20895;51.034;3.742;2024-02-04T00:09:30;11.82;;;6.97;;
34019;SDS011;20895;51.034;3.742;2024-02-04T00:11:55;15.10;;;6.72;;
34019;SDS011;20895;51.034;3.742;2024-02-04T00:14:20;14.57;;;5.93;;
34019;SDS011;20895;51.034;3.742;2024-02-04T00:16:45;17.35;;;7.05;;
34019;SDS011;20895;51.034;3.742;2024-02-04T00:19:10;17.13;;;7.90;;
34019;SDS011;20895;51.034;3.742;2024-02-04T00:21:36;14.00;;;6.95;;
34019;SDS011;20895;51.034;3.742;2024-02-04T00:24:01;14.60;;;6.85;;
34019;SDS011;20895;51.034;3.742;2024-02-04T00:26:27;15.60;;;8.70;;
34019;SDS011;20895;51.034;3.742;2024-02-04T00:28:52;18.67;;;9.93;;
34019;SDS011;20895;51.034;3.742;2024-02-04T00:31:17;13.10;;;6.38;;
34019;SDS011;20895;51.034;3.742;2024-02-04T00:33:42;17.17;;;7.95;;
34019;SDS011;20895;51.034;3.742;2024-02-04T00:36:07;14.60;;;7.47;;
34019;SDS011;20895;51.034;3.742;2024-02-04T00:38:33;14.05;;;7.32;;
34019;SDS011;20895;51.034;3.742;2024-02-04T00:40:58;15.48;;;7.85;;
34019;SDS011;20895;51.034;3.742;2024-02-04T00:43:23;19.58;;;9.00;;
34019;SDS011;20895;51.034;3.742;2024-02-04T00:45:48;19.13;;;9.73;;
34019;SDS011;20895;51.034;3.742;2024-02-04T00:48:14;19.30;;;9.18;;
34019;SDS011;20895;51.034;3.742;2024-02-04T00:50:39;11.35;;;7.93;;
34019;SDS011;20895;51.034;3.742;2024-02-04T00:53:04;16.90;;;8.68;;
34019;SDS011;20895;51.034;3.742;2024-02-04T00:55:29;16.55;;;8.65;;
34019;SDS011;20895;51.034;3.742;2024-02-04T00:57:55;12.25;;;8.00;;
34019;SDS011;20895;51.034;3.742;2024-02-04T01:00:23;19.85;;;9.50;;
34019;SDS011;20895;51.034;3.742;2024-02-04T01:02:49;16.05;;;9.18;;
34019;SDS011;20895;51.034;3.742;2024-02-04T01:05:14;22.77;;;10.57;;
34019;SDS011;20895;51.034;3.742;2024-02-04T01:07:39;16.67;;;10.45;;
34019;SDS011;20895;51.034;3.742;2024-02-04T01:10:05;20.35;;;11.93;;
34019;SDS011;20895;51.034;3.742;2024-02-04T01:12:30;13.77;;;8.98;;
34019;SDS011;20895;51.034;3.742;2024-02-04T01:14:55;24.73;;;10.95;;
34019;SDS011;20895;51.034;3.742;2024-02-04T01:17:20;22.35;;;10.82;;
34019;SDS011;20895;51.034;3.742;2024-02-04T01:19:46;19.65;;;12.00;;
34019;SDS011;20895;51.034;3.742;2024-02-04T01:22:11;21.98;;;11.38;;
34019;SDS011;20895;51.034;3.742;2024-02-04T01:24:37;25.75;;;11.90;;
34019;SDS011;20895;51.034;3.742;2024-02-04T01:27:02;29.67;;;13.20;;
34019;SDS011;20895;51.034;3.742;2024-02-04T01:29:27;17.77;;;10.43;;
34019;SDS011;20895;51.034;3.742;2024-02-04T01:31:53;26.92;;;13.00;;
34019;SDS011;20895;51.034;3.742;2024-02-04T01:34:19;21.10;;;11.60;;
34019;SDS011;20895;51.034;3.742;2024-02-04T01:36:44;20.98;;;10.75;;
34019;SDS011;20895;51.034;3.742;2024-02-04T01:39:09;21.05;;;11.85;;
34019;SDS011;20895;51.034;3.742;2024-02-04T01:41:35;21.83;;;13.30;;
34019;SDS011;20895;51.034;3.742;2024-02-04T01:44:01;19.58;;;13.00;;
34019;SDS011;20895;51.034;3.742;2024-02-04T01:46:27;19.83;;;13.25;;
34019;SDS011;20895;51.034;3.742;2024-02-04T01:48:52;23.05;;;13.50;;
34019;SDS011;20895;51.034;3.742;2024-02-04T01:51:17;22.58;;;12.27;;
34019;SDS011;20895;51.034;3.742;2024-02-04T01:53:44;24.00;;;11.98;;
34019;SDS011;20895;51.034;3.742;2024-02-04T01:56:11;25.55;;;12.63;;
34019;SDS011;20895;51.034;3.742;2024-02-04T01:58:36;22.30;;;11.07;;
34019;SDS011;20895;51.034;3.742;2024-02-04T02:01:01;24.23;;;12.90;;
34019;SDS011;20895;51.034;3.742;2024-02-04T02:03:27;27.92;;;12.05;;
34019;SDS011;20895;51.034;3.742;2024-02-04T02:05:53;23.00;;;11.48;;
34019;SDS011;20895;51.034;3.742;2024-02-04T02:08:19;33.10;;;11.50;;
34019;SDS011;20895;51.034;3.742;2024-02-04T02:10:45;19.85;;;10.75;;
34019;SDS011;20895;51.034;3.742;2024-02-04T02:13:16;26.95;;;12.05;;
34019;SDS011;20895;51.034;3.742;2024-02-04T02:15:47;20.25;;;11.10;;
34019;SDS011;20895;51.034;3.742;2024-02-04T02:18:18;21.15;;;10.93;;
34019;SDS011;20895;51.034;3.742;2024-02-04T02:23:34;25.30;;;11.35;;
34019;SDS011;20895;51.034;3.742;2024-02-04T02:25:59;18.02;;;9.20;;
34019;SDS011;20895;51.034;3.742;2024-02-04T02:28:25;17.02;;;8.80;;
34019;SDS011;20895;51.034;3.742;2024-02-04T02:30:50;20.10;;;7.78;;
34019;SDS011;20895;51.034;3.742;2024-02-04T02:33:15;17.38;;;8.25;;
34019;SDS011;20895;51.034;3.742;2024-02-04T02:35:40;18.60;;;10.80;;
34019;SDS011;20895;51.034;3.742;2024-02-04T02:40:38;18.30;;;8.88;;
34019;SDS011;20895;51.034;3.742;2024-02-04T02:43:05;16.00;;;7.88;;
34019;SDS011;20895;51.034;3.742;2024-02-04T02:45:30;26.95;;;9.68;;
34019;SDS011;20895;51.034;3.742;2024-02-04T02:47:57;15.50;;;7.97;;
34019;SDS011;20895;51.034;3.742;2024-02-04T02:50:23;14.95;;;7.13;;
34019;SDS011;20895;51.034;3.742;2024-02-04T02:52:48;23.58;;;8.70;;
34019;SDS011;20895;51.034;3.742;2024-02-04T02:55:13;22.95;;;8.85;;
34019;SDS011;20895;51.034;3.742;2024-02-04T02:57:39;17.77;;;7.80;;
34019;SDS011;20895;51.034;3.742;2024-02-04T03:00:04;10.68;;;6.28;;
34019;SDS011;20895;51.034;3.742;2024-02-04T03:02:31;17.75;;;7.15;;
34019;SDS011;20895;51.034;3.742;2024-02-04T03:04:56;11.45;;;6.18;;
34019;SDS011;20895;51.034;3.742;2024-02-04T03:07:21;13.45;;;6.63;;
34019;SDS011;20895;51.034;3.742;2024-02-04T03:09:47;12.50;;;6.43;;
34019;SDS011;20895;51.034;3.742;2024-02-04T03:12:12;16.02;;;7.53;;
34019;SDS011;20895;51.034;3.742;2024-02-04T03:14:37;10.80;;;6.40;;
34019;SDS011;20895;51.034;3.742;2024-02-04T03:17:03;15.93;;;7.10;;
34019;SDS011;20895;51.034;3.742;2024-02-04T03:19:28;11.13;;;6.68;;
34019;SDS011;20895;51.034;3.742;2024-02-04T03:21:53;17.98;;;8.18;;
34019;SDS011;20895;51.034;3.742;2024-02-04T03:24:18;16.83;;;7.03;;
34019;SDS011;20895;51.034;3.742;2024-02-04T03:26:44;9.68;;;6.65;;
34019;SDS011;20895;51.034;3.742;2024-02-04T03:29:09;10.88;;;7.28;;
34019;SDS011;20895;51.034;3.742;2024-02-04T03:31:34;15.38;;;7.78;;
34019;SDS011;20895;51.034;3.742;2024-02-04T03:33:59;14.93;;;7.70;;
34019;SDS011;20895;51.034;3.742;2024-02-04T03:36:25;12.30;;;7.60;;
34019;SDS011;20895;51.034;3.742;2024-02-04T03:38:50;10.82;;;6.68;;
34019;SDS011;20895;51.034;3.742;2024-02-04T03:41:16;14.48;;;8.25;;
34019;SDS011;20895;51.034;3.742;2024-02-04T03:43:41;13.60;;;8.57;;
34019;SDS011;20895;51.034;3.742;2024-02-04T03:46:06;16.67;;;8.48;;
34019;SDS011;20895;51.034;3.742;2024-02-04T03:48:31;16.55;;;7.63;;
34019;SDS011;20895;51.034;3.742;2024-02-04T03:50:58;15.88;;;7.78;;
34019;SDS011;20895;51.034;3.742;2024-02-04T03:53:24;17.30;;;8.93;;
34019;SDS011;20895;51.034;3.742;2024-02-04T03:55:50;15.50;;;9.10;;
34019;SDS011;20895;51.034;3.742;2024-02-04T03:58:15;14.93;;;9.73;;
34019;SDS011;20895;51.034;3.742;2024-02-04T04:00:40;23.15;;;8.95;;
34019;SDS011;20895;51.034;3.742;2024-02-04T04:03:06;18.95;;;7.80;;
34019;SDS011;20895;51.034;3.742;2024-02-04T04:05:31;15.38;;;6.57;;
34019;SDS011;20895;51.034;3.742;2024-02-04T04:07:56;13.65;;;6.53;;
34019;SDS011;20895;51.034;3.742;2024-02-04T04:10:21;19.48;;;8.35;;
34019;SDS011;20895;51.034;3.742;2024-02-04T04:12:47;14.88;;;6.72;;
34019;SDS011;20895;51.034;3.742;2024-02-04T04:15:12;14.00;;;8.02;;
34019;SDS011;20895;51.034;3.742;2024-02-04T04:17:37;13.95;;;7.80;;
34019;SDS011;20895;51.034;3.742;2024-02-04T04:20:04;11.75;;;6.88;;
34019;SDS011;20895;51.034;3.742;2024-02-04T04:22:29;11.48;;;6.60;;
34019;SDS011;20895;51.034;3.742;2024-02-04T04:24:54;12.18;;;7.20;;
34019;SDS011;20895;51.034;3.742;2024-02-04T04:27:19;11.60;;;7.03;;
34019;SDS011;20895;51.034;3.742;2024-02-04T04:29:44;13.43;;;7.10;;
34019;SDS011;20895;51.034;3.742;2024-02-04T04:32:10;14.00;;;7.18;;
34019;SDS011;20895;51.034;3.742;2024-02-04T04:34:35;10.30;;;5.63;;
34019;SDS011;20895;51.034;3.742;2024-02-04T04:37:00;11.57;;;6.50;;
34019;SDS011;20895;51.034;3.742;2024-02-04T04:39:26;10.27;;;6.30;;
34019;SDS011;20895;51.034;3.742;2024-02-04T04:41:51;8.77;;;4.13;;
34019;SDS011;20895;51.034;3.742;2024-02-04T04:44:16;14.85;;;7.28;;
34019;SDS011;20895;51.034;3.742;2024-02-04T04:46:41;14.45;;;6.28;;
34019;SDS011;20895;51.034;3.742;2024-02-04T04:49:07;17.95;;;6.20;;
34019;SDS011;20895;51.034;3.742;2024-02-04T04:51:32;10.27;;;5.63;;
34019;SDS011;20895;51.034;3.742;2024-02-04T04:53:58;15.30;;;6.90;;
34019;SDS011;20895;51.034;3.742;2024-02-04T04:56:23;21.63;;;7.88;;
34019;SDS011;20895;51.034;3.742;2024-02-04T04:58:48;13.02;;;5.72;;
34019;SDS011;20895;51.034;3.742;2024-02-04T05:01:15;12.13;;;5.28;;
34019;SDS011;20895;51.034;3.742;2024-02-04T05:03:40;15.13;;;5.93;;
34019;SDS011;20895;51.034;3.742;2024-02-04T05:06:05;15.73;;;5.95;;
34019;SDS011;20895;51.034;3.742;2024-02-04T05:08:30;13.23;;;5.20;;
34019;SDS011;20895;51.034;3.742;2024-02-04T05:10:56;9.30;;;4.72;;
34019;SDS011;20895;51.034;3.742;2024-02-04T05:13:21;13.82;;;5.45;;
34019;SDS011;20895;51.034;3.742;2024-02-04T05:15:46;18.55;;;6.72;;
34019;SDS011;20895;51.034;3.742;2024-02-04T05:18:11;9.90;;;5.00;;
34019;SDS011;20895;51.034;3.742;2024-02-04T05:20:37;12.25;;;4.85;;
34019;SDS011;20895;51.034;3.742;2024-02-04T05:23:02;11.68;;;5.22;;
34019;SDS011;20895;51.034;3.742;2024-02-04T05:25:27;14.23;;;6.50;;
34019;SDS011;20895;51.034;3.742;2024-02-04T05:27:52;17.08;;;7.95;;
34019;SDS011;20895;51.034;3.742;2024-02-04T05:30:17;16.58;;;7.03;;
34019;SDS011;20895;51.034;3.742;2024-02-04T05:32:43;17.25;;;6.75;;
34019;SDS011;20895;51.034;3.742;2024-02-04T05:35:10;13.30;;;6.38;;
34019;SDS011;20895;51.034;3.742;2024-02-04T05:37:35;16.42;;;6.63;;
34019;SDS011;20895;51.034;3.742;2024-02-04T05:40:00;11.68;;;6.38;;
34019;SDS011;20895;51.034;3.742;2024-02-04T05:42:25;16.58;;;8.10;;
34019;SDS011;20895;51.034;3.742;2024-02-04T05:44:51;14.05;;;6.38;;
34019;SDS011;20895;51.034;3.742;2024-02-04T05:47:16;11.98;;;5.60;;
34019;SDS011;20895;51.034;3.742;2024-02-04T05:49:41;11.48;;;5.88;;
34019;SDS011;20895;51.034;3.742;2024-02-04T05:52:06;10.18;;;6.15;;
34019;SDS011;20895;51.034;3.742;2024-02-04T05:54:32;10.57;;;5.07;;
34019;SDS011;20895;51.034;3.742;2024-02-04T05:56:57;23.38;;;8.25;;
34019;SDS011;20895;51.034;3.742;2024-02-04T05:59:22;12.25;;;6.63;;
34019;SDS011;20895;51.034;3.742;2024-02-04T06:01:47;14.57;;;5.72;;
34019;SDS011;20895;51.034;3.742;2024-02-04T06:04:13;12.00;;;5.28;;
34019;SDS011;20895;51.034;3.742;2024-02-04T06:06:38;9.60;;;5.18;;
34019;SDS011;20895;51.034;3.742;2024-02-04T06:09:03;13.07;;;6.68;;
34019;SDS011;20895;51.034;3.742;2024-02-04T06:11:28;12.32;;;5.85;;
34019;SDS011;20895;51.034;3.742;2024-02-04T06:13:54;10.25;;;6.00;;
34019;SDS011;20895;51.034;3.742;2024-02-04T06:16:19;11.98;;;5.53;;
34019;SDS011;20895;51.034;3.742;2024-02-04T06:18:44;10.73;;;6.00;;
34019;SDS011;20895;51.034;3.742;2024-02-04T06:21:09;14.00;;;5.80;;
34019;SDS011;20895;51.034;3.742;2024-02-04T06:23:35;9.52;;;5.53;;
34019;SDS011;20895;51.034;3.742;2024-02-04T06:26:00;16.30;;;5.97;;
34019;SDS011;20895;51.034;3.742;2024-02-04T06:28:25;11.25;;;5.60;;
34019;SDS011;20895;51.034;3.742;2024-02-04T06:30:51;14.50;;;6.85;;
34019;SDS011;20895;51.034;3.742;2024-02-04T06:33:16;9.02;;;4.93;;
34019;SDS011;20895;51.034;3.742;2024-02-04T06:35:41;9.77;;;5.07;;
34019;SDS011;20895;51.034;3.742;2024-02-04T06:38:07;10.15;;;5.25;;
34019;SDS011;20895;51.034;3.742;2024-02-04T06:40:32;15.82;;;4.72;;
34019;SDS011;20895;51.034;3.742;2024-02-04T06:42:57;9.50;;;5.65;;
34019;SDS011;20895;51.034;3.742;2024-02-04T06:45:22;6.57;;;5.25;;
34019;SDS011;20895;51.034;3.742;2024-02-04T06:47:47;9.45;;;4.80;;
34019;SDS011;20895;51.034;3.742;2024-02-04T06:50:13;5.10;;;3.00;;
34019;SDS011;20895;51.034;3.742;2024-02-04T06:52:42;12.38;;;6.20;;
34019;SDS011;20895;51.034;3.742;2024-02-04T06:55:08;10.88;;;5.05;;
34019;SDS011;20895;51.034;3.742;2024-02-04T06:57:33;6.88;;;3.88;;
34019;SDS011;20895;51.034;3.742;2024-02-04T06:59:58;6.53;;;4.22;;
34019;SDS011;20895;51.034;3.742;2024-02-04T07:02:24;8.20;;;3.78;;
34019;SDS011;20895;51.034;3.742;2024-02-04T07:04:49;6.47;;;3.53;;
34019;SDS011;20895;51.034;3.742;2024-02-04T07:07:14;5.13;;;3.13;;
34019;SDS011;20895;51.034;3.742;2024-02-04T07:09:39;8.88;;;4.35;;
34019;SDS011;20895;51.034;3.742;2024-02-04T07:12:05;8.55;;;3.53;;
34019;SDS011;20895;51.034;3.742;2024-02-04T07:14:30;10.18;;;5.15;;
34019;SDS011;20895;51.034;3.742;2024-02-04T07:16:55;7.32;;;2.67;;
34019;SDS011;20895;51.034;3.742;2024-02-04T07:19:21;7.63;;;3.90;;
34019;SDS011;20895;51.034;3.742;2024-02-04T07:21:46;5.88;;;3.05;;
34019;SDS011;20895;51.034;3.742;2024-02-04T07:24:11;5.72;;;2.90;;
34019;SDS011;20895;51.034;3.742;2024-02-04T07:26:36;5.70;;;3.25;;
34019;SDS011;20895;51.034;3.742;2024-02-04T07:29:02;7.85;;;2.88;;
34019;SDS011;20895;51.034;3.742;2024-02-04T07:31:27;6.00;;;2.72;;
34019;SDS011;20895;51.034;3.742;2024-02-04T07:33:52;6.57;;;3.15;;
34019;SDS011;20895;51.034;3.742;2024-02-04T07:36:17;6.55;;;2.42;;
34019;SDS011;20895;51.034;3.742;2024-02-04T07:38:43;8.93;;;3.53;;
34019;SDS011;20895;51.034;3.742;2024-02-04T07:41:08;7.18;;;2.90;;
34019;SDS011;20895;51.034;3.742;2024-02-04T07:43:33;9.45;;;3.80;;
34019;SDS011;20895;51.034;3.742;2024-02-04T07:45:58;5.72;;;2.80;;
34019;SDS011;20895;51.034;3.742;2024-02-04T07:48:24;6.90;;;2.60;;
34019;SDS011;20895;51.034;3.742;2024-02-04T07:50:49;6.38;;;3.45;;
34019;SDS011;20895;51.034;3.742;2024-02-04T07:53:14;9.55;;;3.83;;
34019;SDS011;20895;51.034;3.742;2024-02-04T07:55:40;6.70;;;2.38;;
34019;SDS011;20895;51.034;3.742;2024-02-04T07:58:05;5.57;;;2.35;;
34019;SDS011;20895;51.034;3.742;2024-02-04T08:00:30;8.70;;;3.35;;
34019;SDS011;20895;51.034;3.742;2024-02-04T08:02:55;7.18;;;2.15;;
34019;SDS011;20895;51.034;3.742;2024-02-04T08:05:21;8.45;;;2.30;;
34019;SDS011;20895;51.034;3.742;2024-02-04T08:07:46;6.43;;;2.70;;
34019;SDS011;20895;51.034;3.742;2024-02-04T08:10:11;6.53;;;2.40;;
34019;SDS011;20895;51.034;3.742;2024-02-04T08:12:37;8.48;;;2.78;;
34019;SDS011;20895;51.034;3.742;2024-02-04T08:15:02;8.90;;;4.80;;
34019;SDS011;20895;51.034;3.742;2024-02-04T08:17:28;8.20;;;2.83;;
34019;SDS011;20895;51.034;3.742;2024-02-04T08:19:55;9.25;;;3.00;;
34019;SDS011;20895;51.034;3.742;2024-02-04T08:22:21;7.43;;;2.80;;
34019;SDS011;20895;51.034;3.742;2024-02-04T08:24:46;5.47;;;3.05;;
34019;SDS011;20895;51.034;3.742;2024-02-04T08:27:12;8.57;;;3.38;;
34019;SDS011;20895;51.034;3.742;2024-02-04T08:29:37;8.65;;;3.65;;
34019;SDS011;20895;51.034;3.742;2024-02-04T08:32:03;7.75;;;4.13;;
34019;SDS011;20895;51.034;3.742;2024-02-04T08:34:28;7.68;;;3.58;;
34019;SDS011;20895;51.034;3.742;2024-02-04T08:36:53;8.57;;;3.30;;
34019;SDS011;20895;51.034;3.742;2024-02-04T08:39:19;5.88;;;3.42;;
34019;SDS011;20895;51.034;3.742;2024-02-04T08:41:44;10.52;;;3.80;;
34019;SDS011;20895;51.034;3.742;2024-02-04T08:44:09;7.88;;;3.58;;
34019;SDS011;20895;51.034;3.742;2024-02-04T08:46:34;5.28;;;2.70;;
34019;SDS011;20895;51.034;3.742;2024-02-04T08:49:00;11.45;;;4.78;;
34019;SDS011;20895;51.034;3.742;2024-02-04T08:51:25;10.68;;;4.60;;
34019;SDS011;20895;51.034;3.742;2024-02-04T08:53:50;8.27;;;3.80;;
34019;SDS011;20895;51.034;3.742;2024-02-04T08:56:15;8.65;;;3.55;;
34019;SDS011;20895;51.034;3.742;2024-02-04T08:58:41;9.70;;;3.58;;
34019;SDS011;20895;51.034;3.742;2024-02-04T09:01:06;5.97;;;3.78;;
34019;SDS011;20895;51.034;3.742;2024-02-04T09:03:31;9.02;;;3.45;;
34019;SDS011;20895;51.034;3.742;2024-02-04T09:05:57;5.15;;;2.92;;
34019;SDS011;20895;51.034;3.742;2024-02-04T09:08:23;6.57;;;2.90;;
34019;SDS011;20895;51.034;3.742;2024-02-04T09:10:48;8.35;;;3.20;;
34019;SDS011;20895;51.034;3.742;2024-02-04T09:13:13;5.68;;;2.63;;
34019;SDS011;20895;51.034;3.742;2024-02-04T09:15:38;9.23;;;3.00;;
34019;SDS011;20895;51.034;3.742;2024-02-04T09:18:04;7.68;;;4.22;;
34019;SDS011;20895;51.034;3.742;2024-02-04T09:20:29;11.93;;;3.60;;
34019;SDS011;20895;51.034;3.742;2024-02-04T09:22:54;8.50;;;2.70;;
34019;SDS011;20895;51.034;3.742;2024-02-04T09:25:20;5.25;;;1.85;;
34019;SDS011;20895;51.034;3.742;2024-02-04T09:27:45;4.57;;;1.80;;
34019;SDS011;20895;51.034;3.742;2024-02-04T09:30:10;5.53;;;3.20;;
34019;SDS011;20895;51.034;3.742;2024-02-04T09:32:36;4.75;;;2.00;;
34019;SDS011;20895;51.034;3.742;2024-02-04T09:35:02;6.32;;;2.03;;
34019;SDS011;20895;51.034;3.742;2024-02-04T09:37:27;5.80;;;3.00;;
34019;SDS011;20895;51.034;3.742;2024-02-04T09:39:52;6.32;;;2.22;;
34019;SDS011;20895;51.034;3.742;2024-02-04T09:42:21;5.47;;;2.17;;
34019;SDS011;20895;51.034;3.742;2024-02-04T09:44:49;8.75;;;2.08;;
34019;SDS011;20895;51.034;3.742;2024-02-04T09:47:15;7.40;;;2.45;;
34019;SDS011;20895;51.034;3.742;2024-02-04T09:49:40;6.45;;;2.45;;
34019;SDS011;20895;51.034;3.742;2024-02-04T09:52:09;6.75;;;2.10;;
34019;SDS011;20895;51.034;3.742;2024-02-04T09:54:35;4.25;;;1.55;;
34019;SDS011;20895;51.034;3.742;2024-02-04T09:57:02;6.07;;;2.28;;
34019;SDS011;20895;51.034;3.742;2024-02-04T09:59:28;8.07;;;2.35;;
34019;SDS011;20895;51.034;3.742;2024-02-04T10:01:53;8.27;;;2.30;;
34019;SDS011;20895;51.034;3.742;2024-02-04T10:04:19;5.72;;;3.05;;
34019;SDS011;20895;51.034;3.742;2024-02-04T10:06:44;5.10;;;2.42;;
34019;SDS011;20895;51.034;3.742;2024-02-04T10:09:10;2.00;;;1.27;;
34019;SDS011;20895;51.034;3.742;2024-02-04T10:11:35;7.30;;;2.55;;
34019;SDS011;20895;51.034;3.742;2024-02-04T10:14:00;6.10;;;3.17;;
34019;SDS011;20895;51.034;3.742;2024-02-04T10:16:26;5.90;;;2.50;;
34019;SDS011;20895;51.034;3.742;2024-02-04T10:18:51;9.63;;;2.58;;
34019;SDS011;20895;51.034;3.742;2024-02-04T10:21:19;3.70;;;2.65;;
34019;SDS011;20895;51.034;3.742;2024-02-04T10:23:45;9.18;;;2.80;;
34019;SDS011;20895;51.034;3.742;2024-02-04T10:26:10;2.55;;;1.48;;
34019;SDS011;20895;51.034;3.742;2024-02-04T10:28:36;8.60;;;2.03;;
34019;SDS011;20895;51.034;3.742;2024-02-04T10:31:02;9.10;;;2.40;;
34019;SDS011;20895;51.034;3.742;2024-02-04T10:33:29;5.10;;;1.92;;
34019;SDS011;20895;51.034;3.742;2024-02-04T10:35:55;7.32;;;2.15;;
34019;SDS011;20895;51.034;3.742;2024-02-04T10:38:20;5.18;;;2.42;;
34019;SDS011;20895;51.034;3.742;2024-02-04T10:40:45;6.25;;;2.30;;
34019;SDS011;20895;51.034;3.742;2024-02-04T10:43:11;5.88;;;1.90;;
34019;SDS011;20895;51.034;3.742;2024-02-04T10:45:37;9.48;;;2.45;;
34019;SDS011;20895;51.034;3.742;2024-02-04T10:48:04;6.20;;;2.33;;
34019;SDS011;20895;51.034;3.742;2024-02-04T10:50:30;8.35;;;2.60;;
34019;SDS011;20895;51.034;3.742;2024-02-04T10:53:03;8.30;;;2.60;;
34019;SDS011;20895;51.034;3.742;2024-02-04T10:55:30;8.13;;;3.45;;
34019;SDS011;20895;51.034;3.742;2024-02-04T10:57:55;10.52;;;3.05;;
34019;SDS011;20895;51.034;3.742;2024-02-04T11:00:21;7.10;;;2.63;;
34019;SDS011;20895;51.034;3.742;2024-02-04T11:02:46;8.40;;;3.42;;
34019;SDS011;20895;51.034;3.742;2024-02-04T11:05:14;6.85;;;2.80;;
34019;SDS011;20895;51.034;3.742;2024-02-04T11:07:41;6.90;;;2.90;;
34019;SDS011;20895;51.034;3.742;2024-02-04T11:10:08;7.75;;;3.10;;
34019;SDS011;20895;51.034;3.742;2024-02-04T11:12:35;10.57;;;3.53;;
34019;SDS011;20895;51.034;3.742;2024-02-04T11:15:03;4.07;;;2.75;;
34019;SDS011;20895;51.034;3.742;2024-02-04T11:20:16;7.63;;;2.28;;
34019;SDS011;20895;51.034;3.742;2024-02-04T11:27:41;9.90;;;2.97;;
34019;SDS011;20895;51.034;3.742;2024-02-04T11:30:06;4.53;;;2.45;;
34019;SDS011;20895;51.034;3.742;2024-02-04T11:32:34;7.93;;;2.40;;
34019;SDS011;20895;51.034;3.742;2024-02-04T11:34:59;6.50;;;1.77;;
34019;SDS011;20895;51.034;3.742;2024-02-04T11:37:27;6.15;;;2.25;;
34019;SDS011;20895;51.034;3.742;2024-02-04T11:39:53;4.40;;;1.67;;
34019;SDS011;20895;51.034;3.742;2024-02-04T11:42:22;7.25;;;2.65;;
34019;SDS011;20895;51.034;3.742;2024-02-04T11:44:47;3.85;;;1.80;;
34019;SDS011;20895;51.034;3.742;2024-02-04T11:47:22;4.18;;;1.90;;
34019;SDS011;20895;51.034;3.742;2024-02-04T11:49:53;8.15;;;2.72;;
34019;SDS011;20895;51.034;3.742;2024-02-04T11:52:18;3.40;;;1.70;;
34019;SDS011;20895;51.034;3.742;2024-02-04T11:54:44;8.48;;;1.83;;
34019;SDS011;20895;51.034;3.742;2024-02-04T11:57:09;7.30;;;2.85;;
34019;SDS011;20895;51.034;3.742;2024-02-04T11:59:34;7.57;;;2.00;;
34019;SDS011;20895;51.034;3.742;2024-02-04T12:02:05;4.88;;;1.77;;
34019;SDS011;20895;51.034;3.742;2024-02-04T12:04:31;4.50;;;1.67;;
34019;SDS011;20895;51.034;3.742;2024-02-04T12:06:57;2.22;;;1.33;;
34019;SDS011;20895;51.034;3.742;2024-02-04T12:09:22;6.45;;;2.17;;
34019;SDS011;20895;51.034;3.742;2024-02-04T12:11:47;6.63;;;2.40;;
34019;SDS011;20895;51.034;3.742;2024-02-04T12:14:12;3.83;;;1.88;;
34019;SDS011;20895;51.034;3.742;2024-02-04T12:16:38;6.50;;;1.75;;
34019;SDS011;20895;51.034;3.742;2024-02-04T12:19:04;5.10;;;2.15;;
34019;SDS011;20895;51.034;3.742;2024-02-04T12:21:29;5.07;;;1.83;;
34019;SDS011;20895;51.034;3.742;2024-02-04T12:23:55;3.45;;;1.70;;
34019;SDS011;20895;51.034;3.742;2024-02-04T12:26:20;6.00;;;1.98;;
34019;SDS011;20895;51.034;3.742;2024-02-04T12:28:46;4.95;;;1.90;;
34019;SDS011;20895;51.034;3.742;2024-02-04T12:31:18;5.22;;;1.95;;
34019;SDS011;20895;51.034;3.742;2024-02-04T12:33:51;2.80;;;1.40;;
34019;SDS011;20895;51.034;3.742;2024-02-04T12:36:16;8.77;;;2.83;;
34019;SDS011;20895;51.034;3.742;2024-02-04T12:38:50;8.23;;;4.55;;
34019;SDS011;20895;51.034;3.742;2024-02-04T12:41:15;3.53;;;1.77;;
34019;SDS011;20895;51.034;3.742;2024-02-04T12:43:40;5.07;;;2.25;;
34019;SDS011;20895;51.034;3.742;2024-02-04T12:46:05;4.20;;;2.15;;
34019;SDS011;20895;51.034;3.742;2024-02-04T12:48:32;5.03;;;2.20;;
34019;SDS011;20895;51.034;3.742;2024-02-04T12:50:58;4.50;;;2.33;;
34019;SDS011;20895;51.034;3.742;2024-02-04T12:53:23;6.45;;;3.00;;
34019;SDS011;20895;51.034;3.742;2024-02-04T12:55:48;5.35;;;2.45;;
34019;SDS011;20895;51.034;3.742;2024-02-04T12:58:25;7.53;;;2.75;;
34019;SDS011;20895;51.034;3.742;2024-02-04T13:00:59;4.65;;;2.83;;
34019;SDS011;20895;51.034;3.742;2024-02-04T13:03:24;9.65;;;4.50;;
34019;SDS011;20895;51.034;3.742;2024-02-04T13:05:50;5.07;;;2.40;;
34019;SDS011;20895;51.034;3.742;2024-02-04T13:08:18;6.15;;;2.58;;
34019;SDS011;20895;51.034;3.742;2024-02-04T13:10:43;8.07;;;2.80;;
34019;SDS011;20895;51.034;3.742;2024-02-04T13:13:10;6.18;;;2.63;;
34019;SDS011;20895;51.034;3.742;2024-02-04T13:15:42;6.53;;;2.80;;
34019;SDS011;20895;51.034;3.742;2024-02-04T13:18:08;7.18;;;2.92;;
34019;SDS011;20895;51.034;3.742;2024-02-04T13:20:33;5.60;;;2.72;;
34019;SDS011;20895;51.034;3.742;2024-02-04T13:22:59;7.65;;;2.92;;
34019;SDS011;20895;51.034;3.742;2024-02-04T13:25:25;15.30;;;4.75;;
34019;SDS011;20895;51.034;3.742;2024-02-04T13:27:50;8.15;;;2.13;;
34019;SDS011;20895;51.034;3.742;2024-02-04T13:30:16;5.28;;;2.40;;
34019;SDS011;20895;51.034;3.742;2024-02-04T13:32:42;8.63;;;3.08;;
34019;SDS011;20895;51.034;3.742;2024-02-04T13:35:08;3.08;;;1.77;;
34019;SDS011;20895;51.034;3.742;2024-02-04T13:37:36;7.50;;;2.72;;
34019;SDS011;20895;51.034;3.742;2024-02-04T13:40:02;8.38;;;2.88;;
34019;SDS011;20895;51.034;3.742;2024-02-04T13:42:28;9.02;;;3.72;;
34019;SDS011;20895;51.034;3.742;2024-02-04T13:44:54;6.93;;;2.70;;
34019;SDS011;20895;51.034;3.742;2024-02-04T13:47:19;8.73;;;3.08;;
34019;SDS011;20895;51.034;3.742;2024-02-04T13:49:44;13.10;;;3.42;;
34019;SDS011;20895;51.034;3.742;2024-02-04T13:52:10;11.43;;;3.88;;
34019;SDS011;20895;51.034;3.742;2024-02-04T13:54:35;9.57;;;3.17;;
34019;SDS011;20895;51.034;3.742;2024-02-04T13:57:00;11.10;;;4.05;;
34019;SDS011;20895;51.034;3.742;2024-02-04T13:59:25;10.70;;;3.22;;
34019;SDS011;20895;51.034;3.742;2024-02-04T14:01:50;6.32;;;2.38;;
34019;SDS011;20895;51.034;3.742;2024-02-04T14:04:16;10.02;;;4.43;;
34019;SDS011;20895;51.034;3.742;2024-02-04T14:06:41;10.30;;;2.90;;
34019;SDS011;20895;51.034;3.742;2024-02-04T14:09:06;12.52;;;3.08;;
34019;SDS011;20895;51.034;3.742;2024-02-04T14:11:31;15.52;;;3.75;;
34019;SDS011;20895;51.034;3.742;2024-02-04T14:13:57;6.38;;;2.50;;
34019;SDS011;20895;51.034;3.742;2024-02-04T14:16:22;4.47;;;2.00;;
34019;SDS011;20895;51.034;3.742;2024-02-04T14:18:48;9.65;;;3.55;;
34019;SDS011;20895;51.034;3.742;2024-02-04T14:21:14;5.05;;;2.38;;
34019;SDS011;20895;51.034;3.742;2024-02-04T14:23:40;7.57;;;2.78;;
34019;SDS011;20895;51.034;3.742;2024-02-04T14:26:08;13.68;;;3.60;;
34019;SDS011;20895;51.034;3.742;2024-02-04T14:28:33;9.65;;;3.38;;
34019;SDS011;20895;51.034;3.742;2024-02-04T14:31:06;10.07;;;2.67;;
34019;SDS011;20895;51.034;3.742;2024-02-04T14:33:31;9.93;;;3.33;;
34019;SDS011;20895;51.034;3.742;2024-02-04T14:35:56;10.95;;;3.10;;
34019;SDS011;20895;51.034;3.742;2024-02-04T14:38:22;9.65;;;2.88;;
34019;SDS011;20895;51.034;3.742;2024-02-04T14:40:47;10.45;;;5.35;;
34019;SDS011;20895;51.034;3.742;2024-02-04T14:43:13;5.20;;;2.45;;
34019;SDS011;20895;51.034;3.742;2024-02-04T14:45:40;10.82;;;2.95;;